createdAt,value
2022-12-26T00:01:13.264Z,23.90
2022-12-26T00:03:41.797Z,23.27
2022-12-26T00:06:15.676Z,23.63
2022-12-26T00:08:43.892Z,24.23
2022-12-26T00:11:13.126Z,25.50
2022-12-26T00:13:42.089Z,23.50
2022-12-26T00:16:10.913Z,23.80
2022-12-26T00:18:39.159Z,23.13
2022-12-26T00:21:07.719Z,24.17
2022-12-26T00:23:37.762Z,22.73
2022-12-26T00:26:07.131Z,23.40
2022-12-26T00:28:35.392Z,23.13
2022-12-26T00:31:05.851Z,23.60
2022-12-26T00:33:35.371Z,23.20
2022-12-26T00:36:04.262Z,22.20
2022-12-26T00:38:32.272Z,22.90
2022-12-26T00:41:01.663Z,22.40
2022-12-26T00:43:29.713Z,22.80
2022-12-26T00:45:58.011Z,23.00
2022-12-26T00:48:26.119Z,22.67
2022-12-26T00:50:54.099Z,23.43
2022-12-26T00:53:22.513Z,23.00
2022-12-26T00:55:50.543Z,21.97
2022-12-26T00:58:20.313Z,22.80
2022-12-26T01:00:48.874Z,22.10
2022-12-26T01:03:17.583Z,22.07
2022-12-26T01:05:47.614Z,24.10
2022-12-26T01:08:20.146Z,22.27
2022-12-26T01:10:52.103Z,23.47
2022-12-26T01:13:22.450Z,24.97
2022-12-26T01:15:51.687Z,23.53
2022-12-26T01:18:20.546Z,26.73
2022-12-26T01:20:49.140Z,25.87
2022-12-26T01:23:18.379Z,26.30
2022-12-26T01:26:16.873Z,25.63
2022-12-26T01:28:35.896Z,24.27
2022-12-26T01:31:05.082Z,25.30
2022-12-26T01:33:33.564Z,24.97
2022-12-26T01:36:01.871Z,24.83
2022-12-26T01:38:30.035Z,24.67
2022-12-26T01:41:11.940Z,23.37
2022-12-26T01:43:53.060Z,25.67
2022-12-26T01:46:23.496Z,25.63
2022-12-26T01:48:52.651Z,27.83
2022-12-26T01:51:23.974Z,24.97
2022-12-26T01:53:55.111Z,27.00
2022-12-26T01:56:46.543Z,26.37
2022-12-26T01:59:19.884Z,26.70
2022-12-26T02:01:51.674Z,27.47
2022-12-26T02:04:41.675Z,28.40
2022-12-26T02:07:10.111Z,29.13
2022-12-26T02:09:38.860Z,26.60
2022-12-26T02:12:34.892Z,27.87
2022-12-26T02:15:02.662Z,27.10
2022-12-26T02:17:30.974Z,26.47
2022-12-26T02:20:06.106Z,26.00
2022-12-26T02:23:07.296Z,26.30
2022-12-26T02:26:06.402Z,27.10
2022-12-26T02:28:59.182Z,26.37
2022-12-26T02:31:36.965Z,27.93
2022-12-26T02:34:14.260Z,27.03
2022-12-26T02:36:53.568Z,26.47
2022-12-26T02:39:43.252Z,26.80
2022-12-26T02:42:28.134Z,27.57
2022-12-26T02:45:21.561Z,27.07
2022-12-26T02:47:58.600Z,28.43
2022-12-26T02:50:51.999Z,28.03
2022-12-26T02:53:50.315Z,28.43
2022-12-26T02:56:42.265Z,29.33
2022-12-26T02:59:53.824Z,28.47
2022-12-26T03:02:47.394Z,27.93
2022-12-26T03:05:38.955Z,28.07
2022-12-26T03:08:27.975Z,27.97
2022-12-26T03:11:15.650Z,28.43
2022-12-26T03:13:46.076Z,27.57
2022-12-26T03:16:33.269Z,27.10
2022-12-26T03:19:05.423Z,28.17
2022-12-26T03:21:39.150Z,27.83
2022-12-26T03:24:10.950Z,27.50
2022-12-26T03:26:43.838Z,28.67
2022-12-26T03:29:31.685Z,30.63
2022-12-26T03:32:01.812Z,30.60
2022-12-26T03:34:30.132Z,30.30
2022-12-26T03:37:11.823Z,29.93
2022-12-26T03:40:08.046Z,28.13
2022-12-26T03:43:01.389Z,29.67
2022-12-26T03:45:54.935Z,28.40
2022-12-26T03:48:46.576Z,28.10
2022-12-26T03:51:41.640Z,28.40
2022-12-26T03:54:33.344Z,27.27
2022-12-26T03:57:23.192Z,28.70
2022-12-26T04:00:12.261Z,30.07
2022-12-26T04:03:04.229Z,26.83
2022-12-26T04:06:03.225Z,27.60
2022-12-26T04:08:59.214Z,28.13
2022-12-26T04:11:47.108Z,26.73
2022-12-26T04:14:46.414Z,27.60
2022-12-26T04:17:44.291Z,27.37
2022-12-26T04:20:21.566Z,27.77
2022-12-26T04:23:11.756Z,27.53
2022-12-26T04:26:03.983Z,26.53
2022-12-26T04:28:51.499Z,25.53
2022-12-26T04:31:48.159Z,24.97
2022-12-26T04:34:40.842Z,26.90
2022-12-26T04:37:33.296Z,26.43
2022-12-26T04:40:21.408Z,24.07
2022-12-26T04:43:47.064Z,24.47
2022-12-26T04:45:58.286Z,28.60
2022-12-26T04:48:43.562Z,27.73
2022-12-26T04:51:11.522Z,26.00
2022-12-26T04:53:39.602Z,26.73
2022-12-26T04:56:08.031Z,27.07
2022-12-26T04:58:36.025Z,29.37
2022-12-26T05:01:19.336Z,25.33
2022-12-26T05:04:04.690Z,24.67
2022-12-26T05:06:50.147Z,20.93
2022-12-26T05:09:36.322Z,19.23
2022-12-26T05:12:05.186Z,18.27
2022-12-26T05:14:35.872Z,16.30
2022-12-26T05:17:22.608Z,16.00
2022-12-26T05:20:08.437Z,14.73
2022-12-26T05:22:57.059Z,15.40
2022-12-26T05:25:45.958Z,14.27
2022-12-26T05:28:33.040Z,14.33
2022-12-26T05:31:02.016Z,14.17
2022-12-26T05:33:48.953Z,13.60
2022-12-26T05:36:18.602Z,13.23
2022-12-26T05:38:46.807Z,12.67
2022-12-26T05:41:14.824Z,11.60
2022-12-26T05:43:42.842Z,12.13
2022-12-26T05:46:10.908Z,12.00
2022-12-26T05:48:40.286Z,10.97
2022-12-26T05:51:08.473Z,11.60
2022-12-26T05:53:36.507Z,10.77
2022-12-26T05:56:05.682Z,10.60
2022-12-26T05:58:34.210Z,11.30
2022-12-26T06:01:09.726Z,10.63
2022-12-26T06:03:38.211Z,10.17
2022-12-26T06:06:08.369Z,10.00
2022-12-26T06:08:36.684Z,10.80
2022-12-26T06:11:06.169Z,10.93
2022-12-26T06:13:34.250Z,11.33
2022-12-26T06:16:06.793Z,10.70
2022-12-26T06:18:35.196Z,11.10
2022-12-26T06:21:07.703Z,10.93
2022-12-26T06:23:36.865Z,11.40
2022-12-26T06:26:05.913Z,11.17
2022-12-26T06:28:34.964Z,11.30
2022-12-26T06:31:04.624Z,11.27
2022-12-26T06:33:32.842Z,11.87
2022-12-26T06:36:07.589Z,10.83
2022-12-26T06:38:35.755Z,11.27
2022-12-26T06:41:06.544Z,11.10
2022-12-26T06:43:34.831Z,10.07
2022-12-26T06:46:04.798Z,10.17
2022-12-26T06:48:33.997Z,10.70
2022-12-26T06:51:05.066Z,10.77
2022-12-26T06:53:35.243Z,10.27
2022-12-26T06:56:07.707Z,10.40
2022-12-26T06:58:35.694Z,10.40
2022-12-26T07:01:07.480Z,10.93
2022-12-26T07:03:35.846Z,10.20
2022-12-26T07:06:05.492Z,10.30
2022-12-26T07:08:35.169Z,9.93
2022-12-26T07:11:03.260Z,10.40
2022-12-26T07:13:31.620Z,10.27
2022-12-26T07:16:00.478Z,11.20
2022-12-26T07:18:28.769Z,11.43
2022-12-26T07:20:56.760Z,12.00
2022-12-26T07:23:24.788Z,11.47
2022-12-26T07:25:54.128Z,11.43
2022-12-26T07:28:22.096Z,11.03
2022-12-26T07:30:50.945Z,10.87
2022-12-26T07:33:18.949Z,10.97
2022-12-26T07:35:47.124Z,10.80
2022-12-26T07:38:15.163Z,12.33
2022-12-26T07:40:43.205Z,11.50
2022-12-26T07:43:12.535Z,12.33
2022-12-26T07:45:45.400Z,11.43
2022-12-26T07:48:13.751Z,11.50
2022-12-26T07:50:42.016Z,11.10
2022-12-26T07:53:09.997Z,10.67
2022-12-26T07:55:38.022Z,10.83
2022-12-26T07:58:06.022Z,11.20
2022-12-26T08:00:35.464Z,11.40
2022-12-26T08:03:07.675Z,11.37
2022-12-26T08:05:36.538Z,11.40
2022-12-26T08:08:04.857Z,11.37
2022-12-26T08:10:32.874Z,11.50
2022-12-26T08:13:00.826Z,12.00
2022-12-26T08:15:28.882Z,11.50
2022-12-26T08:17:58.223Z,11.27
2022-12-26T08:20:26.363Z,10.83
2022-12-26T08:25:27.795Z,12.03
2022-12-26T08:27:55.788Z,12.43
2022-12-26T08:30:23.887Z,13.13
2022-12-26T08:32:52.651Z,12.80
2022-12-26T08:35:22.030Z,12.93
2022-12-26T08:37:50.050Z,14.33
2022-12-26T08:40:26.844Z,15.03
2022-12-26T08:43:21.380Z,13.70
2022-12-26T08:45:50.338Z,12.90
2022-12-26T08:48:18.308Z,12.80
2022-12-26T08:50:47.624Z,11.00
2022-12-26T08:53:15.638Z,12.17
2022-12-26T08:55:43.721Z,11.53
2022-12-26T08:58:11.749Z,11.53
2022-12-26T09:00:39.709Z,11.70
2022-12-26T09:03:07.743Z,12.30
2022-12-26T09:05:35.746Z,11.30
2022-12-26T09:08:05.379Z,11.77
2022-12-26T09:10:33.562Z,11.60
2022-12-26T09:13:01.558Z,11.63
2022-12-26T09:15:29.561Z,12.17
2022-12-26T09:17:57.572Z,11.43
2022-12-26T09:20:25.522Z,12.40
2022-12-26T09:22:54.254Z,11.40
2022-12-26T09:25:25.521Z,12.23
2022-12-26T09:27:58.986Z,12.97
2022-12-26T09:30:27.876Z,13.10
2022-12-26T09:32:55.870Z,14.73
2022-12-26T09:35:23.864Z,14.23
2022-12-26T09:37:51.886Z,13.83
2022-12-26T09:40:29.095Z,13.07
2022-12-26T09:43:07.090Z,13.50
2022-12-26T09:45:50.757Z,12.23
2022-12-26T09:48:26.611Z,12.97
2022-12-26T09:50:54.923Z,13.33
2022-12-26T09:53:29.667Z,14.13
2022-12-26T09:56:02.400Z,15.07
2022-12-26T09:58:32.082Z,14.20
2022-12-26T10:01:05.319Z,14.07
2022-12-26T10:03:39.348Z,13.07
2022-12-26T10:06:15.070Z,12.87
2022-12-26T10:09:12.615Z,12.03
2022-12-26T10:11:55.106Z,11.60
2022-12-26T10:14:38.118Z,12.10
2022-12-26T10:17:14.834Z,12.90
2022-12-26T10:19:52.218Z,12.40
2022-12-26T10:22:38.379Z,12.73
2022-12-26T10:25:17.667Z,13.20
2022-12-26T10:27:50.975Z,12.83
2022-12-26T10:30:23.353Z,13.20
2022-12-26T10:32:56.509Z,13.50
2022-12-26T10:35:30.870Z,12.90
2022-12-26T10:38:05.235Z,13.70
2022-12-26T10:40:40.350Z,14.40
2022-12-26T10:43:28.522Z,13.47
2022-12-26T10:46:16.736Z,14.20
2022-12-26T10:48:45.214Z,11.90
2022-12-26T10:51:13.955Z,11.50
2022-12-26T10:53:44.511Z,12.10
2022-12-26T10:56:16.465Z,11.20
2022-12-26T10:58:59.612Z,12.23
2022-12-26T11:01:33.815Z,12.90
2022-12-26T11:04:03.808Z,11.07
2022-12-26T11:06:34.936Z,12.20
2022-12-26T11:09:03.191Z,12.93
2022-12-26T11:11:46.028Z,12.33
2022-12-26T11:14:34.085Z,12.27
2022-12-26T11:17:05.961Z,11.47
2022-12-26T11:19:36.145Z,11.90
2022-12-26T11:22:24.127Z,12.80
2022-12-26T11:25:18.652Z,12.93
2022-12-26T11:27:49.181Z,12.47
2022-12-26T11:30:25.153Z,12.77
2022-12-26T11:33:13.701Z,12.30
2022-12-26T11:35:50.587Z,13.10
2022-12-26T11:41:32.580Z,12.50
2022-12-26T11:44:05.512Z,12.80
2022-12-26T11:46:38.075Z,12.20
2022-12-26T11:49:07.176Z,11.40
2022-12-26T11:51:41.726Z,11.83
2022-12-26T11:54:26.828Z,12.23
2022-12-26T11:57:13.678Z,11.97
2022-12-26T11:59:42.002Z,12.27
2022-12-26T12:02:25.975Z,14.43
2022-12-26T12:04:57.403Z,12.87
2022-12-26T12:07:42.025Z,13.23
2022-12-26T12:10:26.230Z,10.87
2022-12-26T12:13:04.591Z,11.77
2022-12-26T12:15:37.410Z,11.50
2022-12-26T12:18:12.480Z,11.23
2022-12-26T12:20:51.884Z,11.53
2022-12-26T12:23:34.928Z,11.13
2022-12-26T12:26:10.410Z,11.83
2022-12-26T12:29:08.499Z,12.33
2022-12-26T12:31:48.193Z,11.90
2022-12-26T12:34:26.020Z,11.23
2022-12-26T12:37:06.602Z,11.97
2022-12-26T12:39:46.284Z,11.93
2022-12-26T12:42:28.469Z,10.57
2022-12-26T12:45:21.585Z,10.80
2022-12-26T12:47:59.480Z,10.80
2022-12-26T12:50:33.830Z,11.80
2022-12-26T12:53:10.621Z,11.23
2022-12-26T12:56:09.256Z,12.50
2022-12-26T12:58:43.188Z,12.33
2022-12-26T13:01:16.821Z,11.73
2022-12-26T13:03:53.539Z,12.63
2022-12-26T13:06:27.249Z,11.93
2022-12-26T13:08:58.732Z,12.00
2022-12-26T13:11:29.919Z,12.53
2022-12-26T13:14:02.554Z,12.73
2022-12-26T13:16:43.368Z,12.57
2022-12-26T13:19:17.076Z,12.87
2022-12-26T13:21:47.135Z,11.73
2022-12-26T13:24:24.974Z,11.10
2022-12-26T13:26:59.471Z,11.00
2022-12-26T13:29:36.793Z,12.03
2022-12-26T13:32:17.569Z,11.50
2022-12-26T13:34:45.970Z,11.47
2022-12-26T13:37:55.752Z,10.60
2022-12-26T13:40:27.372Z,10.53
2022-12-26T13:43:15.759Z,11.23
2022-12-26T13:45:54.938Z,10.90
2022-12-26T13:49:04.905Z,11.00
2022-12-26T13:51:54.554Z,11.17
2022-12-26T13:54:24.668Z,11.80
2022-12-26T13:57:42.835Z,10.93
2022-12-26T14:00:18.577Z,11.37
2022-12-26T14:03:20.997Z,11.30
2022-12-26T14:06:12.261Z,11.53
2022-12-26T14:08:54.749Z,12.53
2022-12-26T14:11:42.556Z,11.47
2022-12-26T14:14:21.939Z,11.30
2022-12-26T14:16:56.837Z,11.53
2022-12-26T14:19:38.733Z,11.03
2022-12-26T14:22:14.223Z,11.67
2022-12-26T14:24:56.986Z,11.20
2022-12-26T14:27:33.339Z,11.10
2022-12-26T14:30:18.387Z,11.17
2022-12-26T14:33:01.716Z,11.23
2022-12-26T14:35:37.009Z,11.23
2022-12-26T14:38:19.436Z,11.50
2022-12-26T14:41:02.801Z,12.50
2022-12-26T14:43:35.092Z,11.03
2022-12-26T14:46:05.744Z,12.03
2022-12-26T14:48:58.165Z,11.33
2022-12-26T14:51:43.527Z,12.67
2022-12-26T14:54:40.657Z,12.33
2022-12-26T14:57:47.140Z,11.50
2022-12-26T15:00:39.691Z,11.77
2022-12-26T15:03:43.550Z,12.47
2022-12-26T15:07:01.015Z,12.03
2022-12-26T15:09:54.370Z,11.70
2022-12-26T15:12:58.767Z,12.03
2022-12-26T15:15:35.513Z,11.10
2022-12-26T15:18:42.584Z,11.33
2022-12-26T15:21:39.200Z,10.90
2022-12-26T15:25:17.054Z,12.23
2022-12-26T15:28:15.643Z,12.40
2022-12-26T15:31:05.955Z,12.13
2022-12-26T15:33:40.517Z,12.67
2022-12-26T15:36:19.977Z,11.73
2022-12-26T15:38:54.975Z,11.40
2022-12-26T15:41:34.264Z,11.17
2022-12-26T15:44:18.318Z,12.43
2022-12-26T15:46:55.343Z,11.00
2022-12-26T15:49:56.386Z,11.33
2022-12-26T15:52:34.623Z,11.37
2022-12-26T15:55:27.052Z,11.47
2022-12-26T15:58:01.662Z,11.43
2022-12-26T16:00:33.909Z,10.37
2022-12-26T16:03:16.884Z,10.53
2022-12-26T16:05:53.839Z,11.40
2022-12-26T16:08:54.207Z,11.47
2022-12-26T16:11:24.622Z,11.83
2022-12-26T16:13:58.787Z,11.23
2022-12-26T16:16:29.831Z,11.00
2022-12-26T16:19:00.001Z,12.60
2022-12-26T16:21:47.187Z,13.20
2022-12-26T16:24:18.014Z,13.10
2022-12-26T16:26:48.087Z,12.37
2022-12-26T16:29:19.787Z,12.67
2022-12-26T16:31:47.854Z,12.20
2022-12-26T16:34:20.228Z,11.03
2022-12-26T16:36:50.085Z,11.27
2022-12-26T16:39:23.476Z,11.90
2022-12-26T16:42:04.273Z,12.63
2022-12-26T16:44:37.702Z,13.83
2022-12-26T16:47:08.317Z,13.57
2022-12-26T16:49:40.520Z,12.97
2022-12-26T16:52:08.650Z,13.17
2022-12-26T16:54:42.471Z,13.60
2022-12-26T16:57:14.527Z,13.53
2022-12-26T16:59:49.905Z,12.87
2022-12-26T17:02:21.930Z,12.90
2022-12-26T17:05:00.414Z,11.27
2022-12-26T17:07:29.369Z,12.03
2022-12-26T17:10:00.093Z,12.53
2022-12-26T17:12:32.147Z,12.27
2022-12-26T17:15:02.280Z,12.93
2022-12-26T17:17:34.614Z,11.53
2022-12-26T17:20:44.367Z,11.80
2022-12-26T17:23:35.993Z,12.77
2022-12-26T17:26:19.755Z,12.70
2022-12-26T17:28:47.990Z,13.63
2022-12-26T17:31:20.770Z,14.27
2022-12-26T17:33:49.499Z,13.47
2022-12-26T17:37:16.531Z,14.83
2022-12-26T17:39:19.813Z,13.87
2022-12-26T17:41:52.036Z,14.10
2022-12-26T17:44:37.431Z,15.27
2022-12-26T17:47:22.466Z,13.50
2022-12-26T17:49:52.228Z,15.20
2022-12-26T17:52:22.429Z,15.03
2022-12-26T17:54:52.702Z,16.13
2022-12-26T17:57:23.443Z,16.50
2022-12-26T17:59:53.163Z,15.97
2022-12-26T18:02:22.108Z,14.90
2022-12-26T18:04:50.887Z,15.13
2022-12-26T18:07:27.240Z,14.87
2022-12-26T18:10:00.347Z,15.43
2022-12-26T18:12:28.531Z,15.87
2022-12-26T18:15:01.604Z,15.17
2022-12-26T18:17:33.017Z,14.97
2022-12-26T18:20:01.062Z,14.50
2022-12-26T18:22:30.012Z,14.80
2022-12-26T18:24:59.446Z,13.47
2022-12-26T18:27:31.292Z,13.57
2022-12-26T18:29:59.752Z,14.53
2022-12-26T18:32:29.429Z,14.87
2022-12-26T18:34:57.958Z,14.07
2022-12-26T18:37:28.168Z,12.67
2022-12-26T18:39:56.321Z,13.73
2022-12-26T18:42:27.335Z,14.07
2022-12-26T18:44:55.789Z,13.73
2022-12-26T18:47:24.168Z,14.27
2022-12-26T18:49:52.350Z,13.97
2022-12-26T18:52:20.369Z,13.77
2022-12-26T18:54:48.374Z,14.53
2022-12-26T18:57:19.818Z,14.70
2022-12-26T18:59:49.501Z,16.07
2022-12-26T19:02:19.414Z,14.70
2022-12-26T19:04:48.511Z,14.80
2022-12-26T19:07:18.088Z,14.10
2022-12-26T19:09:47.232Z,14.00
2022-12-26T19:12:15.529Z,14.27
2022-12-26T19:14:45.357Z,14.27
2022-12-26T19:17:14.992Z,15.27
2022-12-26T19:19:42.978Z,14.77
2022-12-26T19:22:11.170Z,15.43
2022-12-26T19:24:39.130Z,15.83
2022-12-26T19:27:07.182Z,14.80
2022-12-26T19:29:35.168Z,15.63
2022-12-26T19:32:03.300Z,16.33
2022-12-26T19:34:32.652Z,15.80
2022-12-26T19:37:00.691Z,15.33
2022-12-26T19:39:29.723Z,15.07
2022-12-26T19:41:57.703Z,15.90
2022-12-26T19:44:25.696Z,15.23
2022-12-26T19:47:11.852Z,16.83
2022-12-26T19:49:42.760Z,18.67
2022-12-26T19:52:11.187Z,17.33
2022-12-26T19:54:39.693Z,17.43
2022-12-26T19:57:07.736Z,18.13
2022-12-26T19:59:35.793Z,17.30
2022-12-26T20:02:03.995Z,17.67
2022-12-26T20:04:32.225Z,17.17
2022-12-26T20:07:01.961Z,18.83
2022-12-26T20:09:29.985Z,19.27
2022-12-26T20:11:58.475Z,19.03
2022-12-26T20:14:28.379Z,20.30
2022-12-26T20:17:06.636Z,21.27
2022-12-26T20:19:35.833Z,19.90
2022-12-26T20:22:05.905Z,18.07
2022-12-26T20:24:34.156Z,17.93
2022-12-26T20:27:02.582Z,17.57
2022-12-26T20:29:31.158Z,17.87
2022-12-26T20:31:59.844Z,17.80
2022-12-26T20:34:28.090Z,17.77
2022-12-26T20:36:56.099Z,16.27
2022-12-26T20:39:25.671Z,19.30
2022-12-26T20:41:53.703Z,19.83
2022-12-26T20:44:22.018Z,20.03
2022-12-26T20:46:50.086Z,18.53
2022-12-26T20:49:18.175Z,18.17
2022-12-26T20:51:46.806Z,18.23
2022-12-26T20:54:16.211Z,17.53
2022-12-26T20:56:45.994Z,18.40
2022-12-26T20:59:14.008Z,19.00
2022-12-26T21:01:42.326Z,19.83
2022-12-26T21:04:17.146Z,18.87
2022-12-26T21:06:47.381Z,17.63
2022-12-26T21:09:15.476Z,15.37
2022-12-26T21:11:45.744Z,15.13
2022-12-26T21:14:16.759Z,14.97
2022-12-26T21:16:47.117Z,16.50
2022-12-26T21:19:16.141Z,14.87
2022-12-26T21:21:46.053Z,14.93
2022-12-26T21:24:16.669Z,14.60
2022-12-26T21:26:47.115Z,16.10
2022-12-26T21:29:16.965Z,15.50
2022-12-26T21:31:45.799Z,16.47
2022-12-26T21:34:16.102Z,17.77
2022-12-26T21:37:05.191Z,16.77
2022-12-26T21:39:34.339Z,17.57
2022-12-26T21:42:04.042Z,16.33
2022-12-26T21:44:32.067Z,16.77
2022-12-26T21:47:00.160Z,16.17
2022-12-26T21:49:28.511Z,16.70
2022-12-26T21:51:56.561Z,16.60
2022-12-26T21:54:48.361Z,15.97
2022-12-26T21:57:19.323Z,16.90
2022-12-26T21:59:59.913Z,16.57
2022-12-26T22:02:49.618Z,16.63
2022-12-26T22:05:19.074Z,15.90
2022-12-26T22:07:47.381Z,16.20
2022-12-26T22:10:29.989Z,17.30
2022-12-26T22:12:59.803Z,17.90
2022-12-26T22:15:45.845Z,15.00
2022-12-26T22:18:13.863Z,16.30
2022-12-26T22:20:44.644Z,16.17
2022-12-26T22:23:13.055Z,15.57
2022-12-26T22:25:41.054Z,16.17
2022-12-26T22:28:10.388Z,15.97
2022-12-26T22:30:38.376Z,16.07
2022-12-26T22:33:06.365Z,15.47
2022-12-26T22:35:34.395Z,15.13
2022-12-26T22:38:02.480Z,14.07
2022-12-26T22:40:30.466Z,15.13
2022-12-26T22:42:58.558Z,15.10
2022-12-26T22:45:27.934Z,14.73
2022-12-26T22:47:56.001Z,14.43
2022-12-26T22:50:23.985Z,13.90
2022-12-26T22:52:52.984Z,14.93
2022-12-26T22:55:21.019Z,14.67
2022-12-26T22:57:52.568Z,13.47
2022-12-26T23:00:21.083Z,14.00
2022-12-26T23:02:50.582Z,13.73
2022-12-26T23:05:19.143Z,15.07
2022-12-26T23:07:47.582Z,14.17
2022-12-26T23:10:20.607Z,15.37
2022-12-26T23:12:49.782Z,16.37
2022-12-26T23:15:21.087Z,16.37
2022-12-26T23:18:13.991Z,16.20
2022-12-26T23:20:59.812Z,15.87
2022-12-26T23:23:28.178Z,16.60
2022-12-26T23:25:56.194Z,16.17
2022-12-26T23:28:53.034Z,14.53
2022-12-26T23:31:21.053Z,13.33
2022-12-26T23:33:50.442Z,13.73
2022-12-26T23:36:18.473Z,13.00
2022-12-26T23:38:46.734Z,14.33
2022-12-26T23:41:14.730Z,13.10
2022-12-26T23:43:42.715Z,14.43
2022-12-26T23:46:11.211Z,15.00
2022-12-26T23:48:39.258Z,14.57
2022-12-26T23:51:09.651Z,14.70
2022-12-26T23:53:37.923Z,15.27
2022-12-26T23:56:08.767Z,14.90
2022-12-26T23:58:39.878Z,15.53
